createdAt,value
2019-05-18T00:01:58.117Z,21.17
2019-05-18T00:04:27.585Z,19.67
2019-05-18T00:06:57.299Z,16.27
2019-05-18T00:09:46.109Z,22.22
2019-05-18T00:12:15.623Z,21.90
2019-05-18T00:14:45.087Z,18.80
2019-05-18T00:17:24.959Z,19.10
2019-05-18T00:19:45.632Z,19.95
2019-05-18T00:22:15.173Z,24.95
2019-05-18T00:24:44.642Z,20.17
2019-05-18T00:27:14.125Z,24.10
2019-05-18T00:29:50.668Z,15.20
2019-05-18T00:32:23.727Z,16.93
2019-05-18T00:34:53.173Z,14.40
2019-05-18T00:37:22.639Z,21.05
2019-05-18T00:39:52.406Z,18.77
2019-05-18T00:42:21.903Z,17.65
2019-05-18T00:44:51.344Z,22.35
2019-05-18T00:47:20.818Z,23.10
2019-05-18T00:49:50.292Z,15.90
2019-05-18T00:52:19.742Z,23.75
2019-05-18T00:54:49.280Z,19.95
2019-05-18T00:57:18.822Z,23.47
2019-05-18T00:59:48.288Z,19.87
2019-05-18T01:02:21.319Z,17.42
2019-05-18T01:04:50.778Z,23.33
2019-05-18T01:07:36.296Z,16.70
2019-05-18T01:10:07.449Z,18.17
2019-05-18T01:12:37.006Z,16.07
2019-05-18T01:15:08.162Z,21.50
2019-05-18T01:17:37.681Z,21.40
2019-05-18T01:20:08.012Z,14.40
2019-05-18T01:22:37.481Z,18.52
2019-05-18T01:25:07.175Z,16.65
2019-05-18T01:27:36.749Z,17.65
2019-05-18T01:30:08.182Z,22.45
2019-05-18T01:32:38.824Z,15.05
2019-05-18T01:35:09.854Z,16.90
2019-05-18T01:37:39.331Z,20.90
2019-05-18T01:40:09.356Z,18.75
2019-05-18T01:42:38.788Z,16.00
2019-05-18T01:45:17.017Z,16.10
2019-05-18T01:47:43.237Z,16.17
2019-05-18T01:50:13.048Z,20.30
2019-05-18T01:52:42.518Z,18.65
2019-05-18T01:55:12.217Z,18.60
2019-05-18T01:57:41.689Z,15.93
2019-05-18T02:00:11.771Z,20.35
2019-05-18T02:02:42.342Z,20.00
2019-05-18T02:05:12.531Z,17.20
2019-05-18T02:07:41.997Z,19.70
2019-05-18T02:10:11.804Z,18.07
2019-05-18T02:12:41.255Z,16.65
2019-05-18T02:15:11.706Z,18.92
2019-05-18T02:17:41.155Z,18.05
2019-05-18T02:20:10.966Z,17.55
2019-05-18T02:22:40.423Z,19.05
2019-05-18T02:25:11.038Z,18.12
2019-05-18T02:27:40.485Z,17.55
2019-05-18T02:30:10.616Z,16.00
2019-05-18T02:32:40.148Z,17.77
2019-05-18T02:35:09.843Z,16.57
2019-05-18T02:37:39.318Z,22.98
2019-05-18T02:40:09.507Z,18.55
2019-05-18T02:42:40.022Z,15.58
2019-05-18T02:45:10.110Z,18.50
2019-05-18T02:47:39.576Z,20.23
2019-05-18T02:50:09.759Z,16.97
2019-05-18T02:52:40.218Z,22.58
2019-05-18T02:55:09.776Z,19.85
2019-05-18T02:57:51.058Z,18.87
2019-05-18T03:00:32.456Z,18.45
2019-05-18T03:03:01.899Z,17.20
2019-05-18T03:05:31.421Z,17.07
2019-05-18T03:08:00.874Z,15.93
2019-05-18T03:10:35.626Z,16.50
2019-05-18T03:13:05.901Z,18.17
2019-05-18T03:15:35.364Z,25.37
2019-05-18T03:18:04.906Z,16.95
2019-05-18T03:20:34.347Z,20.05
2019-05-18T03:23:15.876Z,20.48
2019-05-18T03:25:45.328Z,18.05
2019-05-18T03:28:14.919Z,20.75
2019-05-18T03:30:44.497Z,18.75
2019-05-18T03:33:14.033Z,21.17
2019-05-18T03:35:43.528Z,22.50
2019-05-18T03:38:13.017Z,26.77
2019-05-18T03:40:54.832Z,20.65
2019-05-18T03:43:24.309Z,27.22
2019-05-18T03:45:54.810Z,21.48
2019-05-18T03:48:24.292Z,18.32
2019-05-18T03:50:53.761Z,19.82
2019-05-18T03:53:23.251Z,20.27
2019-05-18T03:55:52.711Z,21.93
2019-05-18T03:58:22.170Z,21.97
2019-05-18T04:00:54.555Z,17.57
2019-05-18T04:03:24.012Z,20.05
2019-05-18T04:05:53.472Z,24.23
2019-05-18T04:08:22.933Z,25.23
2019-05-18T04:11:04.762Z,23.92
2019-05-18T04:13:34.230Z,19.30
2019-05-18T04:16:05.230Z,19.50
2019-05-18T04:18:36.262Z,23.67
2019-05-18T04:21:08.569Z,18.75
2019-05-18T04:23:38.012Z,19.92
2019-05-18T04:26:07.657Z,18.07
2019-05-18T04:28:37.130Z,21.93
2019-05-18T04:31:06.577Z,21.37
2019-05-18T04:33:39.991Z,18.02
2019-05-18T04:36:09.464Z,18.40
2019-05-18T04:38:38.936Z,24.18
2019-05-18T04:41:08.398Z,18.05
2019-05-18T04:43:38.136Z,25.02
2019-05-18T04:46:07.587Z,22.42
2019-05-18T04:48:37.038Z,30.97
2019-05-18T04:51:06.524Z,22.93
2019-05-18T04:53:35.965Z,21.87
2019-05-18T04:56:05.501Z,27.00
2019-05-18T04:58:35.537Z,27.13
2019-05-18T05:01:05.058Z,21.57
2019-05-18T05:03:35.088Z,25.72
2019-05-18T05:06:04.560Z,24.90
2019-05-18T05:08:46.533Z,34.67
2019-05-18T05:11:23.214Z,24.25
2019-05-18T05:13:52.684Z,23.92
2019-05-18T05:16:22.694Z,27.27
2019-05-18T05:18:52.238Z,28.05
2019-05-18T05:21:21.658Z,23.02
2019-05-18T05:23:51.190Z,24.32
2019-05-18T05:26:20.657Z,29.30
2019-05-18T05:28:50.174Z,25.30
2019-05-18T05:31:19.606Z,28.32
2019-05-18T05:33:49.070Z,26.23
2019-05-18T05:36:18.538Z,27.07
2019-05-18T05:38:48.015Z,29.63
2019-05-18T05:41:17.499Z,29.42
2019-05-18T05:43:47.083Z,25.82
2019-05-18T05:46:23.859Z,34.88
2019-05-18T05:48:53.332Z,32.42
2019-05-18T05:51:23.325Z,32.65
2019-05-18T05:53:52.770Z,32.23
2019-05-18T05:56:30.999Z,32.13
2019-05-18T05:59:00.527Z,28.23
2019-05-18T06:01:29.983Z,33.23
2019-05-18T06:03:59.452Z,36.03
2019-05-18T06:06:29.639Z,32.28
2019-05-18T06:08:59.095Z,38.67
2019-05-18T06:11:28.580Z,33.18
2019-05-18T06:14:07.723Z,32.80
2019-05-18T06:16:37.075Z,28.60
2019-05-18T06:19:06.523Z,29.98
2019-05-18T06:21:35.977Z,33.85
2019-05-18T06:24:05.549Z,34.20
2019-05-18T06:26:35.946Z,32.50
2019-05-18T06:29:05.466Z,52.60
2019-05-18T06:31:34.939Z,35.00
2019-05-18T06:34:04.549Z,33.83
2019-05-18T06:36:33.981Z,42.60
2019-05-18T06:39:05.083Z,30.88
2019-05-18T06:41:34.574Z,31.07
2019-05-18T06:44:04.683Z,31.35
2019-05-18T06:46:34.158Z,30.37
2019-05-18T06:49:03.624Z,25.50
2019-05-18T06:51:33.103Z,26.25
2019-05-18T06:54:02.558Z,28.55
2019-05-18T06:56:33.861Z,34.00
2019-05-18T06:59:03.503Z,31.57
2019-05-18T07:01:32.955Z,30.40
2019-05-18T07:04:02.494Z,33.58
2019-05-18T07:06:32.343Z,33.65
2019-05-18T07:09:01.868Z,34.05
2019-05-18T07:11:32.922Z,32.00
2019-05-18T07:14:02.887Z,26.77
2019-05-18T07:16:32.352Z,33.73
2019-05-18T07:19:01.823Z,34.92
2019-05-18T07:21:31.302Z,33.83
2019-05-18T07:24:00.766Z,33.92
2019-05-18T07:26:31.326Z,29.23
2019-05-18T07:29:05.403Z,26.10
2019-05-18T07:31:32.320Z,34.78
2019-05-18T07:34:01.775Z,28.30
2019-05-18T07:36:31.275Z,35.65
2019-05-18T07:39:00.814Z,25.25
2019-05-18T07:41:44.528Z,28.32
2019-05-18T07:44:02.024Z,27.70
2019-05-18T07:46:32.746Z,26.05
2019-05-18T07:49:02.272Z,35.52
2019-05-18T07:51:36.932Z,30.00
2019-05-18T07:54:02.792Z,33.60
2019-05-18T07:56:32.334Z,33.50
2019-05-18T07:59:01.786Z,34.25
2019-05-18T08:01:31.245Z,33.20
2019-05-18T08:04:00.707Z,33.13
2019-05-18T08:06:40.463Z,39.67
2019-05-18T08:09:11.125Z,32.25
2019-05-18T08:11:41.843Z,32.08
2019-05-18T08:14:11.923Z,31.95
2019-05-18T08:16:41.383Z,31.35
2019-05-18T08:19:11.894Z,35.17
2019-05-18T08:21:52.641Z,31.50
2019-05-18T08:24:13.907Z,33.58
2019-05-18T08:26:44.394Z,30.50
2019-05-18T08:29:13.871Z,27.67
2019-05-18T08:31:43.405Z,33.08
2019-05-18T08:34:12.861Z,35.92
2019-05-18T08:36:42.335Z,34.88
2019-05-18T08:39:11.923Z,34.38
2019-05-18T08:41:48.730Z,37.13
2019-05-18T08:44:17.407Z,32.48
2019-05-18T08:46:46.896Z,35.90
2019-05-18T08:49:16.844Z,37.90
2019-05-18T08:51:51.952Z,29.85
2019-05-18T08:54:21.414Z,33.92
2019-05-18T08:56:50.867Z,32.20
2019-05-18T08:59:20.383Z,32.53
2019-05-18T09:01:49.839Z,26.80
2019-05-18T09:04:19.329Z,32.85
2019-05-18T09:06:48.846Z,31.75
2019-05-18T09:09:18.315Z,27.45
2019-05-18T09:11:47.763Z,37.17
2019-05-18T09:14:17.329Z,25.97
2019-05-18T09:16:46.789Z,37.55
2019-05-18T09:19:16.360Z,31.17
2019-05-18T09:21:46.878Z,33.53
2019-05-18T09:24:17.605Z,31.45
2019-05-18T09:26:53.591Z,29.90
2019-05-18T09:29:29.528Z,34.73
2019-05-18T09:32:05.165Z,31.85
2019-05-18T09:37:18.617Z,22.45
2019-05-18T09:39:57.734Z,26.65
2019-05-18T09:42:29.163Z,25.65
2019-05-18T09:44:58.644Z,31.55
2019-05-18T09:47:31.042Z,28.15
2019-05-18T09:50:01.775Z,23.02
2019-05-18T09:52:44.131Z,29.18
2019-05-18T09:55:08.371Z,28.40
2019-05-18T09:57:40.654Z,33.48
2019-05-18T10:00:11.937Z,25.35
2019-05-18T10:02:42.058Z,22.45
2019-05-18T10:05:12.984Z,26.42
2019-05-18T10:07:42.924Z,24.55
2019-05-18T10:10:13.371Z,25.20
2019-05-18T10:12:44.270Z,26.75
2019-05-18T10:15:20.575Z,29.82
2019-05-18T10:17:50.048Z,30.85
2019-05-18T10:20:20.240Z,29.90
2019-05-18T10:23:04.220Z,27.87
2019-05-18T10:25:24.288Z,37.70
2019-05-18T10:27:53.810Z,32.73
2019-05-18T10:30:25.920Z,30.15
2019-05-18T10:32:55.393Z,31.23
2019-05-18T10:35:24.879Z,31.10
2019-05-18T10:37:54.995Z,33.60
2019-05-18T10:40:24.548Z,30.12
2019-05-18T10:42:55.327Z,29.35
2019-05-18T10:45:29.038Z,32.03
2019-05-18T10:48:05.529Z,33.98
2019-05-18T10:50:38.362Z,28.02
2019-05-18T10:53:10.577Z,27.65
2019-05-18T10:55:52.651Z,29.42
2019-05-18T10:58:23.774Z,34.33
2019-05-18T11:00:54.326Z,32.13
2019-05-18T11:03:25.311Z,31.82
2019-05-18T11:05:54.851Z,33.25
2019-05-18T11:08:26.166Z,25.17
2019-05-18T11:10:57.533Z,27.25
2019-05-18T11:13:26.996Z,25.02
2019-05-18T11:15:57.874Z,25.80
2019-05-18T11:18:30.508Z,27.00
2019-05-18T11:21:08.894Z,21.77
2019-05-18T11:23:43.633Z,26.80
2019-05-18T11:26:12.384Z,25.82
2019-05-18T11:28:44.568Z,24.65
2019-05-18T11:31:14.026Z,27.48
2019-05-18T11:33:43.474Z,24.25
2019-05-18T11:36:13.020Z,24.92
2019-05-18T11:38:42.531Z,22.93
2019-05-18T11:41:13.663Z,23.73
2019-05-18T11:43:43.400Z,20.80
2019-05-18T11:46:14.440Z,22.52
2019-05-18T11:48:43.981Z,20.90
2019-05-18T11:51:13.380Z,21.25
2019-05-18T11:53:42.854Z,24.67
2019-05-18T11:56:12.303Z,19.85
2019-05-18T11:58:41.762Z,19.05
2019-05-18T12:01:11.295Z,22.32
2019-05-18T12:03:40.762Z,17.27
2019-05-18T12:06:10.234Z,17.95
2019-05-18T12:08:39.694Z,20.50
2019-05-18T12:11:09.171Z,26.73
2019-05-18T12:13:38.635Z,20.27
2019-05-18T12:16:08.253Z,17.67
2019-05-18T12:18:37.716Z,15.10
2019-05-18T12:21:07.430Z,14.13
2019-05-18T12:23:38.095Z,17.12
2019-05-18T12:26:07.624Z,17.37
2019-05-18T12:28:37.078Z,20.08
2019-05-18T12:31:06.577Z,16.67
2019-05-18T12:33:36.085Z,17.42
2019-05-18T12:36:07.585Z,11.80
2019-05-18T12:38:38.868Z,11.35
2019-05-18T12:41:08.342Z,14.70
2019-05-18T12:44:01.419Z,10.65
2019-05-18T12:46:32.258Z,14.78
2019-05-18T12:49:03.182Z,11.78
2019-05-18T12:51:32.637Z,11.88
2019-05-18T12:54:02.178Z,6.15
2019-05-18T12:56:37.371Z,5.28
2019-05-18T12:59:06.915Z,4.95
2019-05-18T13:01:36.362Z,4.37
2019-05-18T13:04:05.820Z,3.37
2019-05-18T13:06:36.610Z,6.30
2019-05-18T13:09:07.214Z,5.83
2019-05-18T13:11:40.769Z,6.80
2019-05-18T13:14:13.032Z,4.12
2019-05-18T13:16:50.850Z,6.28
2019-05-18T13:19:23.087Z,5.35
2019-05-18T13:21:52.603Z,12.35
2019-05-18T13:24:23.603Z,11.57
2019-05-18T13:26:53.083Z,10.55
2019-05-18T13:29:24.476Z,7.80
2019-05-18T13:31:53.630Z,7.37
2019-05-18T13:34:23.074Z,7.53
2019-05-18T13:36:54.071Z,6.50
2019-05-18T13:39:24.371Z,8.50
2019-05-18T13:41:54.053Z,8.15
2019-05-18T13:44:23.911Z,8.50
2019-05-18T13:46:53.441Z,10.15
2019-05-18T13:49:22.900Z,8.70
2019-05-18T13:51:52.323Z,9.03
2019-05-18T13:54:22.967Z,11.35
2019-05-18T13:56:52.491Z,11.63
2019-05-18T13:59:24.113Z,16.73
2019-05-18T14:01:55.135Z,7.50
2019-05-18T14:04:24.840Z,6.72
2019-05-18T14:06:54.290Z,6.45
2019-05-18T14:09:23.726Z,7.65
2019-05-18T14:11:53.191Z,7.47
2019-05-18T14:14:22.646Z,10.63
2019-05-18T14:16:52.083Z,13.68
2019-05-18T14:19:21.577Z,12.10
2019-05-18T14:21:51.002Z,9.48
2019-05-18T14:24:20.462Z,8.38
2019-05-18T14:26:50.970Z,8.10
2019-05-18T14:29:20.685Z,5.28
2019-05-18T14:31:50.123Z,9.03
2019-05-18T14:34:19.588Z,13.10
2019-05-18T14:36:49.088Z,17.35
2019-05-18T14:39:18.547Z,14.43
2019-05-18T14:41:49.525Z,12.53
2019-05-18T14:44:20.055Z,10.53
2019-05-18T14:46:49.506Z,9.95
2019-05-18T14:49:18.968Z,10.53
2019-05-18T14:51:48.412Z,11.83
2019-05-18T14:54:17.901Z,12.70
2019-05-18T14:56:47.372Z,14.13
2019-05-18T14:59:16.841Z,9.93
2019-05-18T15:01:46.306Z,8.10
2019-05-18T15:04:16.998Z,21.30
2019-05-18T15:06:46.457Z,22.98
2019-05-18T15:09:15.925Z,31.93
2019-05-18T15:11:45.378Z,34.73
2019-05-18T15:14:14.868Z,38.42
2019-05-18T15:16:44.340Z,34.58
2019-05-18T15:19:14.881Z,39.67
2019-05-18T15:21:45.095Z,38.63
2019-05-18T15:24:14.553Z,33.45
2019-05-18T15:26:44.073Z,37.33
2019-05-18T15:29:14.522Z,31.95
2019-05-18T15:31:44.044Z,35.28
2019-05-18T15:34:13.607Z,33.13
2019-05-18T15:36:43.239Z,37.05
2019-05-18T15:39:12.719Z,35.73
2019-05-18T15:41:42.181Z,34.55
2019-05-18T15:44:17.557Z,33.63
2019-05-18T15:46:47.028Z,35.58
2019-05-18T15:49:16.634Z,33.05
2019-05-18T15:51:46.091Z,30.23
2019-05-18T15:54:15.633Z,36.00
2019-05-18T15:56:45.096Z,33.00
2019-05-18T15:59:15.695Z,31.77
2019-05-18T16:01:45.147Z,33.45
2019-05-18T16:04:14.587Z,30.27
2019-05-18T16:06:44.025Z,30.17
2019-05-18T16:09:13.553Z,33.60
2019-05-18T16:11:43.043Z,34.00
2019-05-18T16:14:12.497Z,35.63
2019-05-18T16:16:42.034Z,31.02
2019-05-18T16:19:11.430Z,35.35
2019-05-18T16:21:40.907Z,38.38
2019-05-18T16:24:10.381Z,33.13
2019-05-18T16:26:39.824Z,41.25
2019-05-18T16:29:09.352Z,35.92
2019-05-18T16:31:38.825Z,30.55
2019-05-18T16:34:08.370Z,41.08
2019-05-18T16:36:37.948Z,34.88
2019-05-18T16:39:08.025Z,40.03
2019-05-18T16:41:37.545Z,40.55
2019-05-18T16:44:07.154Z,38.75
2019-05-18T16:46:36.615Z,36.13
2019-05-18T16:49:06.068Z,36.30
2019-05-18T16:51:42.745Z,42.00
2019-05-18T16:54:12.303Z,32.40
2019-05-18T16:56:43.306Z,33.48
2019-05-18T16:59:14.190Z,37.70
2019-05-18T17:01:44.413Z,39.48
2019-05-18T17:04:14.077Z,39.45
2019-05-18T17:06:43.571Z,34.98
2019-05-18T17:09:13.051Z,38.13
2019-05-18T17:11:42.543Z,38.75
2019-05-18T17:14:12.015Z,41.13
2019-05-18T17:16:41.454Z,38.08
2019-05-18T17:19:10.914Z,38.65
2019-05-18T17:21:41.924Z,36.75
2019-05-18T17:24:11.440Z,32.23
2019-05-18T17:26:52.412Z,33.92
2019-05-18T17:29:12.063Z,32.23
2019-05-18T17:31:41.593Z,33.73
2019-05-18T17:34:11.055Z,30.40
2019-05-18T17:36:40.508Z,31.60
2019-05-18T17:39:09.958Z,29.87
2019-05-18T17:41:39.495Z,30.08
2019-05-18T17:44:08.969Z,33.42
2019-05-18T17:46:38.424Z,35.33
2019-05-18T17:49:07.908Z,32.67
2019-05-18T17:51:37.375Z,30.25
2019-05-18T17:54:06.922Z,31.77
2019-05-18T17:56:36.378Z,33.42
2019-05-18T17:59:14.084Z,30.12
2019-05-18T18:01:45.005Z,35.03
2019-05-18T18:04:14.538Z,31.52
2019-05-18T18:06:44.006Z,28.50
2019-05-18T18:09:13.685Z,40.52
2019-05-18T18:11:43.133Z,38.13
2019-05-18T18:14:12.662Z,34.45
2019-05-18T18:16:43.726Z,35.95
2019-05-18T18:19:13.186Z,33.00
2019-05-18T18:21:46.695Z,30.55
2019-05-18T18:24:24.710Z,35.33
2019-05-18T18:26:54.177Z,34.60
2019-05-18T18:29:23.644Z,31.68
2019-05-18T18:31:53.103Z,31.93
2019-05-18T18:34:22.562Z,31.27
2019-05-18T18:36:52.031Z,41.95
2019-05-18T18:39:22.392Z,29.63
2019-05-18T18:41:56.947Z,45.40
2019-05-18T18:44:26.444Z,35.85
2019-05-18T18:46:57.266Z,37.08
2019-05-18T18:49:26.809Z,38.20
2019-05-18T18:52:00.691Z,41.50
2019-05-18T18:57:06.362Z,36.38
2019-05-18T18:59:35.831Z,37.50
2019-05-18T19:02:08.266Z,38.08
2019-05-18T19:04:43.262Z,37.25
2019-05-18T19:07:10.901Z,43.90
2019-05-18T19:09:40.420Z,38.42
2019-05-18T19:12:10.423Z,44.58
2019-05-18T19:14:39.872Z,42.75
2019-05-18T19:17:09.413Z,42.30
2019-05-18T19:19:40.229Z,43.68
2019-05-18T19:22:10.673Z,43.60
2019-05-18T19:24:41.659Z,46.20
2019-05-18T19:27:12.188Z,41.90
2019-05-18T19:29:41.659Z,43.40
2019-05-18T19:32:11.147Z,33.08
2019-05-18T19:34:40.603Z,42.53
2019-05-18T19:37:10.661Z,46.50
2019-05-18T19:39:40.140Z,52.10
2019-05-18T19:42:14.033Z,41.98
2019-05-18T19:47:17.463Z,35.50
2019-05-18T19:49:52.742Z,35.88
2019-05-18T19:52:22.208Z,37.20
2019-05-18T19:54:51.738Z,41.95
2019-05-18T19:57:21.273Z,41.00
2019-05-18T19:59:50.750Z,51.13
2019-05-18T20:02:21.075Z,43.75
2019-05-18T20:05:06.785Z,40.48
2019-05-18T20:07:23.231Z,39.88
2019-05-18T20:09:53.047Z,41.83
2019-05-18T20:12:22.575Z,48.60
2019-05-18T20:14:52.042Z,42.30
2019-05-18T20:17:21.561Z,39.92
2019-05-18T20:19:51.206Z,32.90
2019-05-18T20:22:20.755Z,43.55
2019-05-18T20:24:50.208Z,41.88
2019-05-18T20:27:19.683Z,39.27
2019-05-18T20:29:49.979Z,41.90
2019-05-18T20:32:19.494Z,37.30
2019-05-18T20:34:48.943Z,41.00
2019-05-18T20:37:25.519Z,36.08
2019-05-18T20:39:54.977Z,37.13
2019-05-18T20:42:27.417Z,49.85
2019-05-18T20:44:57.694Z,40.63
2019-05-18T20:47:28.817Z,36.98
2019-05-18T20:50:01.229Z,42.03
2019-05-18T20:52:31.934Z,37.28
2019-05-18T20:55:02.443Z,42.83
2019-05-18T20:57:34.416Z,43.78
2019-05-18T21:00:07.704Z,40.90
2019-05-18T21:02:38.939Z,39.90
2019-05-18T21:05:10.267Z,41.25
2019-05-18T21:07:40.035Z,44.35
2019-05-18T21:10:10.249Z,37.20
2019-05-18T21:12:52.390Z,38.83
2019-05-18T21:15:22.003Z,40.38
2019-05-18T21:17:56.168Z,48.30
2019-05-18T21:20:32.811Z,40.90
2019-05-18T21:23:02.226Z,46.80
2019-05-18T21:25:36.637Z,39.40
2019-05-18T21:28:06.150Z,40.52
2019-05-18T21:30:36.579Z,34.95
2019-05-18T21:33:06.094Z,42.27
2019-05-18T21:35:35.568Z,41.88
2019-05-18T21:38:05.035Z,38.88
2019-05-18T21:40:34.574Z,47.00
2019-05-18T21:43:16.488Z,47.15
2019-05-18T21:45:45.950Z,45.30
2019-05-18T21:48:15.410Z,44.35
2019-05-18T21:50:45.003Z,46.42
2019-05-18T21:53:14.465Z,38.80
2019-05-18T21:55:45.474Z,40.43
2019-05-18T21:58:14.926Z,39.95
2019-05-18T22:00:46.907Z,40.33
2019-05-18T22:03:16.548Z,49.42
2019-05-18T22:05:46.043Z,41.33
2019-05-18T22:08:15.489Z,36.95
2019-05-18T22:10:45.034Z,45.28
2019-05-18T22:13:14.474Z,43.50
2019-05-18T22:15:43.926Z,47.00
2019-05-18T22:18:24.075Z,43.02
2019-05-18T22:20:44.621Z,45.12
2019-05-18T22:23:20.866Z,51.98
2019-05-18T22:25:50.340Z,54.77
2019-05-18T22:28:19.969Z,42.53
2019-05-18T22:30:49.435Z,47.85
2019-05-18T22:33:18.904Z,57.58
2019-05-18T22:35:48.349Z,46.28
2019-05-18T22:38:17.798Z,40.17
2019-05-18T22:40:47.235Z,43.00
2019-05-18T22:43:16.639Z,55.80
2019-05-18T22:45:46.095Z,46.85
2019-05-18T22:48:15.545Z,45.67
2019-05-18T22:50:45.022Z,58.95
2019-05-18T22:53:14.518Z,54.35
2019-05-18T22:55:43.997Z,52.13
2019-05-18T22:58:15.142Z,50.33
2019-05-18T23:00:44.584Z,43.00
2019-05-18T23:03:20.960Z,45.10
2019-05-18T23:05:50.430Z,43.98
2019-05-18T23:08:23.644Z,50.88
2019-05-18T23:10:55.049Z,49.35
2019-05-18T23:13:24.184Z,50.88
2019-05-18T23:15:53.614Z,44.08
2019-05-18T23:18:23.059Z,51.77
2019-05-18T23:20:52.427Z,64.60
2019-05-18T23:23:21.880Z,49.60
2019-05-18T23:25:52.421Z,52.43
2019-05-18T23:28:21.871Z,56.73
2019-05-18T23:30:51.357Z,53.87
2019-05-18T23:33:21.871Z,60.40
2019-05-18T23:35:51.344Z,48.23
2019-05-18T23:38:20.778Z,53.55
2019-05-18T23:40:50.247Z,51.20
2019-05-18T23:43:19.718Z,54.83
2019-05-18T23:46:03.458Z,49.53
2019-05-18T23:48:32.893Z,45.67
2019-05-18T23:51:02.362Z,54.27
2019-05-18T23:53:31.839Z,60.25
2019-05-18T23:56:01.286Z,50.20
2019-05-18T23:58:30.814Z,56.88
